Latest Weather Observations for Thredbo Top Station

IDN60801

Issued at 5:05 pm EDT Thursday 23 October 2014 (issued every 30 minutes, with the page automatically refreshed every 10 minutes)

About weather observations | Map of weather stations | Latest weather observations for NSW | Other Formats
Station Details ID: 071032 Name: THREDBO AWS Lat: -36.49 Lon: 148.29 Height: 1957.0 m
Data from the previous 72 hours. | See also: Recent months at Thredbo Top Station
Date/Time
EDT
Temp
°C
App
Temp
°C
Dew
Point
Rel
Hum
%
Delta-T
°C
Wind Press
QNH
hPa
Press
MSL
hPa
Rain
since 9 am
mm
Dir
 
Spd
km/h
Gust
km/h
Spd
kts
Gust
kts
23/05:00pm 14.4 9.8 6.3 58 4.2 NW 20 26 11 14 1020.4 1021.7 0.0
23/04:30pm 15.1 9.6 5.9 54 4.7 NW 24 30 13 16 1020.0 1021.4 0.0
23/04:00pm 16.8 13.2 4.8 45 6.1 SW 13 22 7 12 1020.3 1021.6 0.0
23/03:30pm 17.2 13.4 3.8 41 6.7 W 13 22 7 12 1020.4 1021.7 0.0
23/03:00pm 16.2 12.3 5.2 48 5.6 W 15 26 8 14 1020.8 1022.2 0.0
23/02:30pm 17.1 13.6 5.4 46 6.1 W 13 24 7 13 1021.0 1022.3 0.0
23/02:00pm 16.3 12.5 4.0 44 6.2 WSW 13 20 7 11 1021.4 1022.8 0.0
23/01:30pm 16.6 12.3 5.3 47 5.8 WSW 17 24 9 13 1021.6 1023.0 0.0
23/01:00pm 16.4 11.9 4.4 45 6.1 WNW 17 26 9 14 1021.9 1023.2 0.0
23/12:30pm 15.7 9.5 4.1 46 5.8 WNW 26 35 14 19 1022.1 1023.5 0.0
23/12:00pm 15.7 9.8 3.8 45 5.9 W 24 32 13 17 1022.6 1023.9 0.0
23/11:30am 15.8 10.5 4.8 48 5.6 W 22 32 12 17 1022.7 1024.1 0.0
23/11:00am 15.0 9.4 3.2 45 5.8 WNW 22 32 12 17 1022.9 1024.3 0.0
23/10:30am 15.1 8.7 0.9 38 6.6 WNW 24 32 13 17 1022.8 1024.2 0.0
23/10:00am 15.1 9.1 1.3 39 6.5 WNW 22 32 12 17 1022.8 1024.2 0.0
23/09:30am 14.5 8.9 3.3 47 5.5 WNW 22 28 12 15 1022.9 1024.3 0.0
23/09:00am 12.6 7.3 3.0 52 4.6 WNW 20 26 11 14 1023.0 1024.4 0.0
23/08:30am 13.5 8.2 2.1 46 5.4 W 19 24 10 13 1023.2 1024.7 0.0
23/08:00am 12.7 8.4 1.1 45 5.3 W 13 20 7 11 1023.1 1024.5 0.0
23/07:30am 11.7 6.7 1.4 49 4.7 WSW 17 20 9 11 1023.2 1024.7 0.0
23/07:00am 10.4 5.8 -0.7 46 4.8 WSW 13 17 7 9 1022.9 1024.3 0.0
23/06:30am 10.1 5.6 -0.1 49 4.5 W 13 15 7 8 1022.8 1024.2 0.0
23/06:00am 10.7 5.7 1.5 53 4.2 WSW 17 22 9 12 1023.0 1024.4 0.0
23/05:30am 9.6 4.4 2.2 60 3.4 WSW 19 22 10 12 1022.7 1024.1 0.0
23/05:00am 9.0 3.4 1.2 58 3.5 W 20 24 11 13 1022.6 1023.9 0.0
23/04:30am 9.0 3.7 4.8 75 2.0 W 22 26 12 14 1022.4 1023.8 0.0
23/04:00am 8.7 2.8 7.6 93 0.6 W 28 33 15 18 1022.4 1023.8 0.0
23/03:30am 8.9 2.8 6.7 86 1.1 W 28 35 15 19 1022.4 1023.8 0.0
23/03:14am 10.0 2.7 0.3 51 4.3 W 28 32 15 17 1022.6 1023.9 0.0
23/03:00am 8.6 4.9 -2.6 45 4.5 W 7 11 4 6 1022.3 1023.7 0.0
23/02:30am 8.0 4.1 -1.5 51 3.9 W 9 11 5 6 1022.4 1023.8 0.0
23/02:00am 9.2 5.6 0.4 54 3.8 WNW 9 11 5 6 1022.4 1023.8 0.0
23/01:30am 10.1 7.4 2.5 59 3.5 S 6 9 3 5 1022.9 1024.3 0.0
23/01:00am 9.9 6.5 4.1 67 2.8 SSW 11 15 6 8 1023.5 1024.9 0.0
23/12:30am 10.2 7.8 4.4 67 2.8 SW 6 7 3 4 1023.7 1025.1 0.0
23/12:00am 7.4 4.7 3.8 78 1.7 W 7 11 4 6 1023.8 1025.2 0.0
 
Date/Time
EDT
Temp
°C
App
Temp
°C
Dew
Point
Rel
Hum
%
Delta-T
°C
Wind Press
QNH
hPa
Press
MSL
hPa
Rain
since 9 am
mm
Dir
 
Spd
km/h
Gust
km/h
Spd
kts
Gust
kts
22/11:30pm 7.1 4.4 3.5 78 1.7 W 7 11 4 6 1023.9 1025.4 0.0
22/11:00pm 6.7 4.5 3.3 79 1.6 W 4 7 2 4 1024.0 1025.5 0.0
22/10:30pm 7.4 5.2 3.5 76 1.8 WSW 4 6 2 3 1024.0 1025.5 0.0
22/10:00pm 8.2 5.6 3.3 71 2.3 S 6 9 3 5 1024.2 1025.6 0.0
22/09:30pm 10.3 6.9 3.8 64 3.1 S 11 15 6 8 1024.3 1025.7 0.0
22/09:00pm 10.1 6.2 3.4 63 3.2 SSW 13 17 7 9 1024.2 1025.6 0.0
22/08:30pm 10.3 6.3 4.7 68 2.7 WSW 15 19 8 10 1023.7 1025.1 0.0
22/08:00pm 9.3 5.7 6.7 84 1.3 WSW 15 17 8 9 1023.2 1024.7 0.0
22/07:30pm 9.8 5.8 6.5 80 1.7 WSW 17 20 9 11 1023.0 1024.4 0.0
22/07:00pm 10.1 7.2 6.6 79 1.8 W 11 15 6 8 1022.7 1024.1 0.0
22/06:30pm 11.9 8.1 6.0 67 3.0 W 15 20 8 11 1022.7 1024.1 0.0
22/06:00pm 13.2 9.3 5.4 59 3.9 W 15 22 8 12 1022.7 1024.1 0.0
22/05:30pm 13.7 10.1 6.6 62 3.7 WSW 15 24 8 13 1022.7 1024.1 0.0
22/05:00pm 14.1 9.3 4.7 53 4.7 WSW 19 24 10 13 1022.8 1024.2 0.0
22/04:30pm 14.2 9.9 7.0 62 3.8 WSW 19 28 10 15 1022.8 1024.2 0.0
22/04:00pm 14.2 9.7 6.3 59 4.1 WSW 19 28 10 15 1023.0 1024.4 0.0
22/03:30pm 14.0 7.7 5.6 57 4.3 W 28 39 15 21 1023.4 1024.8 0.0
22/03:09pm 14.1 7.8 5.5 56 4.4 WSW 28 46 15 25 1023.4 1024.8 0.0
22/03:00pm 14.0 7.3 5.6 57 4.3 W 30 46 16 25 1023.5 1024.9 0.0
22/02:30pm 14.4 7.4 6.0 57 4.3 W 32 43 17 23 1023.5 1024.9 0.0
22/02:00pm 12.9 4.3 4.6 57 4.1 W 39 50 21 27 1023.9 1025.4 0.0
22/01:30pm 12.3 3.7 4.5 59 3.8 W 39 50 21 27 1024.2 1025.6 0.0
22/01:00pm 12.6 3.6 4.8 59 3.9 W 41 52 22 28 1024.3 1025.7 0.0
22/12:30pm 12.1 3.1 6.2 67 3.0 W 43 54 23 29 1024.5 1026.0 0.0
22/12:00pm 11.9 2.7 5.3 64 3.3 W 43 57 23 31 1024.6 1026.1 0.0
22/11:30am 12.5 3.9 4.7 59 3.9 W 39 48 21 26 1024.8 1026.3 0.0
22/11:00am 11.5 2.3 5.4 66 3.0 W 43 52 23 28 1025.3 1026.8 0.0
22/10:30am 11.2 2.6 4.7 64 3.2 W 39 48 21 26 1025.3 1026.8 0.0
22/10:00am 10.8 2.3 5.1 68 2.8 W 39 46 21 25 1025.5 1027.0 0.0
22/09:30am 10.3 1.1 5.3 71 2.5 W 43 52 23 28 1025.6 1027.1 0.0
22/09:00am 10.4 1.6 5.4 71 2.5 W 41 50 22 27 1025.5 1027.0 0.0
22/08:30am 9.8 0.7 4.2 68 2.7 W 41 48 22 26 1025.4 1026.9 0.0
22/08:00am 9.4 0.7 4.0 69 2.6 W 39 48 21 26 1025.5 1027.0 0.0
22/07:30am 9.1 0.4 1.8 60 3.3 W 37 44 20 24 1025.8 1027.3 0.0
22/07:00am 9.8 0.1 -16.4 14 7.8 W 33 41 18 22 1025.8 1027.3 0.0
22/06:30am 8.1 -0.7 -6.0 36 5.3 W 32 35 17 19 1025.8 1027.3 0.0
22/06:00am 7.5 -0.1 -5.5 39 4.8 W 26 32 14 17 1025.6 1027.1 0.0
22/05:30am 7.1 -0.9 -5.6 40 4.7 W 28 32 15 17 1025.5 1027.0 0.0
22/05:00am 7.6 0.5 -4.8 41 4.7 W 24 30 13 16 1025.8 1027.3 0.0
22/04:30am 7.2 0.0 -9.6 29 5.7 W 22 28 12 15 1025.9 1027.4 0.0
22/04:00am 7.6 0.4 -5.1 40 4.8 W 24 30 13 16 1026.1 1027.6 0.0
22/03:30am 7.6 0.6 -3.6 45 4.4 W 24 30 13 16 1026.3 1027.8 0.0
22/03:00am 7.4 0.5 -2.3 50 3.9 W 24 28 13 15 1026.7 1028.2 0.0
22/02:30am 6.3 3.6 0.0 64 2.7 WNW 4 9 2 5 1027.0 1028.6 0.0
22/02:00am 6.3 3.1 2.8 78 1.6 W 9 11 5 6 1027.4 1028.9 0.0
22/01:30am 6.9 3.2 2.6 74 1.9 WSW 11 13 6 7 1027.6 1029.1 0.0
22/01:00am 7.6 4.7 2.7 71 2.2 SW 7 9 4 5 1028.0 1029.6 0.0
22/12:30am 5.2 2.3 1.7 78 1.5 WSW 6 7 3 4 1028.4 1030.0 0.0
22/12:00am 7.6 4.9 2.9 72 2.1 SSW 6 9 3 5 1028.7 1030.3 0.0
 
Date/Time
EDT
Temp
°C
App
Temp
°C
Dew
Point
Rel
Hum
%
Delta-T
°C
Wind Press
QNH
hPa
Press
MSL
hPa
Rain
since 9 am
mm
Dir
 
Spd
km/h
Gust
km/h
Spd
kts
Gust
kts
21/11:30pm 7.5 4.7 3.0 73 2.1 SSW 7 11 4 6 1028.7 1030.3 0.0
21/11:00pm 7.6 4.2 1.7 66 2.6 S 9 11 5 6 1028.8 1030.4 0.0
21/10:30pm 7.9 4.6 2.6 69 2.4 SSW 9 11 5 6 1029.1 1030.7 0.0
21/10:00pm 7.4 2.3 6.0 91 0.7 WSW 22 28 12 15 1029.3 1030.9 0.0
21/09:30pm 7.3 2.2 6.1 92 0.6 W 22 28 12 15 1029.2 1030.8 0.0
21/09:00pm 7.1 2.9 5.6 90 0.7 W 17 22 9 12 1029.2 1030.8 0.0
21/08:30pm 6.7 2.5 5.5 92 0.6 W 17 19 9 10 1029.1 1030.7 0.0
21/08:00pm 7.1 3.5 5.1 87 1.0 W 13 15 7 8 1028.6 1030.2 0.0
21/07:30pm 8.6 5.5 5.5 81 1.5 WSW 11 13 6 7 1028.5 1030.1 0.0
21/07:00pm 10.0 7.4 6.2 77 1.9 SSW 9 11 5 6 1028.3 1029.9 0.0
21/06:30pm 11.1 9.1 6.3 72 2.4 SW 6 11 3 6 1027.9 1029.5 0.0
21/06:00pm 12.3 10.2 6.6 68 2.9 SSW 7 11 4 6 1027.7 1029.3 0.0
21/05:30pm 12.1 9.1 5.9 66 3.1 S 11 19 6 10 1027.7 1029.3 0.0
21/05:00pm 12.7 9.7 5.8 63 3.5 SSE 11 17 6 9 1027.6 1029.1 0.0
21/04:30pm 13.2 9.8 6.1 62 3.6 S 13 19 7 10 1027.6 1029.1 0.0
21/04:00pm 13.6 10.4 5.3 57 4.2 S 11 19 6 10 1027.8 1029.4 0.0
21/03:30pm 13.2 10.1 5.6 60 3.9 S 11 20 6 11 1027.9 1029.5 0.0
21/03:00pm 12.9 9.4 5.6 61 3.7 S 13 20 7 11 1028.3 1029.9 0.0
21/02:30pm 12.2 9.6 6.3 67 3.0 SE 9 20 5 11 1028.5 1030.1 0.0
21/02:00pm 12.7 10.1 6.1 64 3.4 SE 9 19 5 10 1028.8 1030.4 0.0
21/01:30pm 12.3 9.7 6.1 66 3.2 E 9 19 5 10 1029.1 1030.7 0.0
21/01:00pm 12.3 9.0 6.4 67 3.0 SE 13 22 7 12 1029.4 1031.0 0.0
21/12:30pm 12.1 10.0 6.6 69 2.8 ESE 7 11 4 6 1029.6 1031.3 0.0
21/12:00pm 13.3 11.6 8.2 71 2.7 ESE 7 15 4 8 1029.9 1031.5 0.0
21/11:30am 12.7 10.3 7.0 68 3.0 ESE 9 15 5 8 1030.1 1031.7 0.0
21/11:00am 11.6 9.7 6.9 73 2.4 E 6 11 3 6 1030.3 1032.0 0.0
21/10:30am 11.9 10.1 5.3 64 3.3 E 4 9 2 5 1030.4 1032.1 0.0
21/10:00am 11.1 8.3 1.9 53 4.2 ESE 6 9 3 5 1030.7 1032.3 0.0
21/09:30am 11.6 9.1 1.5 50 4.6 E 4 7 2 4 1030.6 1032.2 0.0
21/09:00am 11.2 8.6 0.9 49 4.6 E 4 6 2 3 1030.6 1032.2 0.2
21/08:30am 10.6 7.7 -1.4 43 5.1 ESE 4 6 2 3 1030.4 1032.1 0.2
21/08:00am 10.4 6.9 -10.4 22 7.1 N 2 4 1 2 1030.2 1031.9 0.2
21/07:30am 9.3 4.1 -11.3 22 6.9 SSW 11 13 6 7 1029.9 1031.5 0.2
21/07:00am 8.1 2.1 -11.8 23 6.4 WSW 15 19 8 10 1029.8 1031.4 0.2
21/06:30am 5.0 0.0 -14.4 23 5.9 SW 9 13 5 7 1029.6 1031.3 0.2
21/06:00am 2.6 -1.3 -10.6 37 4.2 W 4 7 2 4 1029.3 1030.9 0.2
21/05:30am 3.2 -1.1 -9.4 39 4.2 WNW 7 9 4 5 1029.3 1030.9 0.2
21/05:00am 3.8 -0.1 -6.5 47 3.6 W 6 11 3 6 1029.3 1030.9 0.2
21/04:30am 2.7 -0.3 -4.7 58 2.7 N 2 7 1 4 1029.2 1030.8 0.2
21/04:00am 5.4 2.2 -3.1 54 3.3 WSW 4 15 2 8 1029.2 1030.8 0.2
21/03:30am 5.5 1.1 0.5 70 2.1 WSW 13 17 7 9 1029.4 1031.0 0.2
21/03:00am 5.0 1.6 1.8 80 1.4 WSW 9 15 5 8 1029.6 1031.3 0.2
21/02:30am 5.2 2.9 2.6 83 1.2 SSW 4 9 2 5 1029.8 1031.4 0.0
21/02:00am 5.6 2.0 5.0 96 0.3 WSW 13 17 7 9 1030.1 1031.7 0.0
21/01:30am 6.4 3.5 6.3 99 0.0 SW 11 15 6 8 1030.2 1031.9 0.0
21/01:00am 4.5 2.9 4.4 99 0.0 WSW 2 6 1 3 1030.3 1032.0 0.0
21/12:30am 1.4 -0.8 1.3 99 0.0 SSE 2 9 1 5 1030.6 1032.2 0.0
21/12:00am 1.2 -1.4 1.1 99 0.0 SE 4 6 2 3 1030.7 1032.3 0.0
 
Date/Time
EDT
Temp
°C
App
Temp
°C
Dew
Point
Rel
Hum
%
Delta-T
°C
Wind Press
QNH
hPa
Press
MSL
hPa
Rain
since 9 am
mm
Dir
 
Spd
km/h
Gust
km/h
Spd
kts
Gust
kts
20/11:30pm 1.4 -0.8 1.3 99 0.0 SSE 2 4 1 2 1030.8 1032.4 0.0
20/11:00pm 1.2 -1.4 1.1 99 0.0 SW 4 6 2 3 1030.7 1032.3 0.0
20/10:30pm 2.1 -0.3 2.0 99 0.0 S 4 6 2 3 1030.7 1032.3 0.0
20/10:00pm 2.7 -2.7 2.6 99 0.0 NW 20 30 11 16 1030.7 1032.3 0.0
20/09:30pm 3.0 -3.1 2.9 99 0.0 NW 24 30 13 16 1030.8 1032.4 0.0
20/09:00pm 3.2 0.6 3.1 99 0.0 NNE 6 11 3 6 1030.8 1032.4 0.0
20/08:30pm 3.3 1.5 3.2 99 0.0 ESE 2 6 1 3 1030.3 1032.0 0.0
20/08:00pm 3.4 1.6 3.3 99 0.0 ESE 2 7 1 4 1030.0 1031.6 0.0
20/07:30pm 3.4 0.8 3.3 99 0.0 NNE 6 11 3 6 1029.9 1031.5 0.0
20/07:00pm 3.4 0.2 3.3 99 0.0 NNE 9 11 5 6 1029.8 1031.4 0.0
20/06:30pm 4.3 2.3 4.2 99 0.0 N 4 6 2 3 1029.4 1031.0 0.0
20/06:00pm 4.9 2.4 3.9 93 0.5 ENE 6 9 3 5 1029.4 1031.0 0.0
20/05:30pm 5.7 3.3 4.3 91 0.7 ENE 6 7 3 4 1029.4 1031.0 0.0

Other Formats:

Comma delimited format used in spreadsheet applications
http://www.bom.gov.au/fwo/IDN60801/IDN60801.95909.axf

JavaScript Object Notation format (JSON) in row-major order
http://www.bom.gov.au/fwo/IDN60801/IDN60801.95909.json